WEATHER DATA

YESTERDAY
Time Temp. Dewp. Hum. Wind dir Wind speed Wind gust Bar. 1h Prec. 24h Prec.
00:02 15.3 13.8 91 348 0.3 1.4 1011.9 0.0000 0.0000
00:13 15.3 14 92 341 0.3 1.1 1011.9 0.0000 0.0000
00:23 15.4 14.1 92 135 0.3 1.1 1011.9 0.0000 0.0000
00:32 15.5 14.2 92 186 0.3 0.8 1012.1 0.0000 0.0000
00:43 15.5 14.2 92 195 0.3 1.1 1012.1 0.0000 0.0000
00:53 15.2 13.7 91 194 0.3 1.1 1012.1 0.0000 0.0000
01:03 14.9 13.6 92 198 0.3 0.8 1012.2 0.0000 0.0000
01:13 14.7 13.4 92 0 0.8 1012.2 0.0000 0.0000
01:24 14.4 13.1 92 0 0.3 1012.2 0.0000 0.0000
01:33 14.2 13.1 93 0 0.3 1012.3 0.0000 0.0000
01:43 14.1 13.1 94 0 0.8 1012.3 0.0000 0.0000
01:54 14 13.1 94 0 0.3 1012.3 0.0000 0.0000
02:04 13.8 12.9 94 0 0.3 1012.4 0.0000 0.0000
02:14 13.6 12.7 94 0 0.3 1012.3 0.0000 0.0000
02:23 13.4 12.6 95 0 0.8 1012.4 0.0000 0.0000
02:34 13.4 12.8 96 0 0.3 1012.4 0.0000 0.0000
02:44 13.4 12.8 96 0 0.3 1012.3 0.0000 0.0000
02:54 13.5 13 97 0 0.3 1012.4 0.0000 0.0000
03:04 13.6 13.1 97 0 0.3 1012.4 0.0000 0.0000
03:15 13.7 13.4 98 0 0.8 1012.4 0.0000 0.0000
03:24 13.9 13.7 99 90 0.3 1.1 1012.4 0.0000 0.0000
03:34 14.3 14.3 100 348 0.3 1.4 1012.4 0.0000 0.0000
03:45 14.3 14.1 99 56 0.3 0.8 1012.4 0.0000 0.0000
03:55 14.3 14.1 99 0 0.3 1.4 1012.3 0.0000 0.0000
04:05 14.2 13.9 98 0 1.1 1012.4 0.0000 0.0000
04:15 14.1 13.8 98 0 0.8 1012.5 0.0000 0.0000
04:25 13.9 13.6 98 0 0.8 1012.6 0.0000 0.0000
04:35 13.7 13.5 99 0 0.8 1012.7 0.0000 0.0000
04:45 13.6 13.4 99 0 0.3 1012.7 0.0000 0.0000
04:56 13.4 13.1 98 0 0.3 1012.8 0.0000 0.0000
05:06 13.1 12.8 98 0 0.3 1012.7 0.0000 0.0000
05:15 12.9 12.6 98 0 0.8 1012.8 0.0000 0.0000
05:25 12.7 12.5 99 0 0.3 1013 0.0000 0.0000
05:36 12.8 12.8 100 0 0.8 1013.1 0.0000 0.0000
05:46 12.9 12.9 100 0 0.8 1013.1 0.0000 0.0000
05:56 12.8 12.8 100 0 0.3 1013.2 0.0000 0.0000
06:06 12.7 12.7 100 0 0.3 1013.2 0.0000 0.0000
06:16 12.8 12.8 100 0 0.8 1013.3 0.0000 0.0000
06:26 12.9 12.9 100 0 0.3 1013.5 0.0000 0.0000
06:36 13.1 13.1 100 0 0.8 1013.6 0.0000 0.0000
06:47 13.5 13.5 100 195 0.3 0.8 1013.5 0.0000 0.0000
06:57 14.1 14.1 100 225 0.3 1.4 1013.6 0.0000 0.0000
07:06 14.4 14.4 100 225 0.8 1.7 1013.6 0.0000 0.0000
09:36 17.5 15.5 88 217 1.7 5.8 1014.2 0.0000 0.0000
09:51 18 15.6 86 221 3.3 5.8 1014.2 0.0000 0.0000
10:12 18.9 16 83 221 1.7 4.2 1014.2 0.0000 0.0000
10:21 19.5 16.5 83 221 1.7 4.7 1014.3 0.0000 0.0000
10:31 19.8 16.4 81 204 1.1 3.9 1014.4 0.0000 0.0000
10:42 20.4 17 81 215 2.2 4.2 1014.2 0.0000 0.0000
10:52 20.6 16.4 77 50 1.1 2.5 1014.2 0.0000 0.0000
11:58 22.1 17.3 74 175 1.4 4.7 1014 0.0000 0.0000
12:12 21.5 16.7 74 204 1.4 3.9 1014.2 0.0000 0.0000
12:26 21.7 16.9 74 196 1.4 6.1 1014.2 0.0000 0.0000
13:01 20.5 16.3 77 215 2.5 6.7 1014.2 0.0000 0.0000
13:11 21 16.6 76 222 3.6 6.4 1014.2 0.0000 0.0000
13:21 20.8 16.2 75 211 2.5 8.6 1014.2 0.0000 0.0000
13:28 21.2 16.6 75 169 1.7 6.4 1014.2 0.0000 0.0000
13:38 21.6 16.8 74 217 3.6 7.8 1014.3 0.0000 0.0000
13:49 21.7 16.7 73 207 1.7 7.2 1014.3 0.0000 0.0000
13:57 22.2 16.7 71 210 2.5 8.3 1014.3 0.0000 0.0000
14:08 22 16.1 69 204 2.5 6.4 1014.3 0.0000 0.0000
14:17 21.9 15.5 67 184 1.7 5.3 1014.2 0.0000 0.0000
14:27 22.3 16.1 68 210 2.5 7.2 1014.2 0.0000 0.0000
14:37 22.3 15.6 66 214 2.8 6.1 1014.3 0.0000 0.0000
14:48 22.2 15.3 65 219 5 10.3 1014.2 0.0000 0.0000
14:58 22.4 16 67 213 3.6 7.8 1014.1 0.0000 0.0000
15:07 22.4 15.7 66 208 1.7 7.5 1014.2 0.0000 0.0000
15:18 22.3 15.2 64 221 4.7 8.3 1014.2 0.0000 0.0000
15:28 22.2 15.1 64 221 3.3 10 1014.1 0.0000 0.0000
15:38 22.3 14.9 63 188 1.7 4.2 1014.2 0.0000 0.0000
15:55 22 13.9 60 216 3.3 13.6 1014.3 0.0000 0.0000
16:15 21.7 14.4 63 219 2.8 10 1014.3 0.0000 0.0000
16:23 21.6 14.5 64 221 3.3 11.4 1014.1 0.0000 0.0000
16:33 20.8 13.3 62 218 2.8 8.3 1014.2 0.0000 0.0000
16:43 20.6 13.6 64 214 3.9 8.6 1014.1 0.0000 0.0000
16:53 20.7 13.4 63 218 5.3 11.1 1014 0.0000 0.0000
17:03 20.3 12.8 62 217 4.2 10.3 1013.9 0.0000 0.0000
17:13 20.7 13.9 65 219 3.3 8.6 1013.8 0.0000 0.0000
17:23 20.9 14.1 65 205 2.5 7.8 1013.7 0.0000 0.0000
17:33 21.1 14.3 65 214 2.8 8.3 1013.7 0.0000 0.0000
17:37 21.1 14.3 65 217 3.3 11.4 1013.7 0.0000 0.0000
17:52 20.8 14.2 66 216 3.6 6.7 1013.7 0.0000 0.0000
18:02 20.1 13.3 65 221 4.7 10 1013.8 0.0000 0.0000
18:13 19.6 12.6 64 219 5.3 8.9 1013.8 0.2040 0.2000
18:18 19.3 12.6 65 185 2.2 6.4 1013.8 0.2040 0.2000
18:28 18.9 12.2 65 212 2.5 6.7 1013.7 0.2040 0.2000
18:38 18.9 12.9 68 216 2.5 5.8 1013.8 0.2040 0.2000
18:46 19.2 13.4 69 220 3.3 9.7 1013.6 0.2040 0.2000
18:59 19.9 13.8 68 218 3.9 8.9 1013.5 0.0000 0.2000
19:19 19.2 13.2 68 219 3.3 10 1013.6 0.0000 0.2000
19:29 18.8 13 69 212 3.3 8.6 1013.5 0.0000 0.2000
19:42 18.5 13.1 71 224 5.8 11.1 1013.5 0.0000 0.2000
19:52 18.4 13.3 72 216 3.3 10.8 1013.6 0.0000 0.2000
20:02 18.2 13.3 73 222 5 8.9 1013.6 0.0000 0.2000
20:12 17.9 13.2 74 221 3.3 7.8 1013.7 0.0000 0.2000
20:23 17.8 13.3 75 221 3.6 8.3 1013.5 0.0000 0.2000
20:33 17.5 13 75 221 3.9 8.6 1013.5 0.0000 0.2000
20:42 17.4 13.1 76 220 3.9 8.3 1013.4 0.0000 0.2000
20:53 17.4 13.1 76 225 4.2 8.9 1013.4 0.0000 0.2000
21:03 17.3 13.2 77 222 5.8 11.1 1013.3 0.0000 0.2000
21:38 16.8 12.9 78 217 5 9.2 1013.2 0.0000 0.2000
21:48 16.7 13 79 219 4.7 10 1013.3 0.0000 0.2000
21:59 16.6 12.9 79 217 3.9 9.7 1013.2 0.0000 0.2000
22:09 16.5 13 80 219 3.6 6.7 1013.1 0.0000 0.2000
22:20 16.5 13 80 219 4.2 8.6 1013.1 0.0000 0.2000
22:30 16.4 12.9 80 222 3.9 8.6 1013 0.0000 0.2000
22:39 16.4 13.1 81 214 3.9 7.8 1012.9 0.0000 0.2000
22:50 16.5 13.2 81 218 4.7 7.8 1012.9 0.0000 0.2000
23:00 16.4 13.1 81 220 3.3 6.1 1013.1 0.0000 0.2000
23:10 16.4 13.1 81 220 4.7 8.6 1013 0.0000 0.2000
23:20 16.4 13.1 81 213 3.9 7.2 1013.1 0.0000

DAY STATISTIC

2020-07-03
TEMPERATURE
AVERAGE
17.4
HIGH
22.4
14:58
LOW
12.7
05:25
PRESSURE
AVERAGE
1013.3
HIGH
1014.4
10:31
LOW
1011.9
00:02
DEWPOINT
AVERAGE
14.0
HIGH
17.3
11:58
LOW
12.2
18:28
HUMIDITY
AVERAGE
82
HIGH
100
03:34
LOW
60
15:55
WIND SPEED
AVERAGE
2.0
HIGH
5.8
19:42
WIND GUST
AVERAGE
5.1
HIGH
13.6
15:55
WIND DIRECTION
PREVAILING
SW
54.1%
N
3.6
NE
1.8
E
0.9
SE
0.9
S
12.6
SW
54.1
W
0.0
NW
0.0
PRECIPITATION
RAIN HOUR
0.2
RAIN DAY
0.2
TEMPERATURE (°C)
LOW
12.7
HIGH
22.4
AVERAGE
17.4
PRESSURE (hpa)
LOW
1011.9
HIGH
1014.4
AVERAGE
1013.3
DEVICE